createdAt,value
2018-10-18T00:02:14.879Z,5.80
2018-10-18T00:04:43.304Z,5.00
2018-10-18T00:07:11.824Z,4.20
2018-10-18T00:09:40.301Z,11.10
2018-10-18T00:12:08.894Z,3.13
2018-10-18T00:14:37.387Z,3.20
2018-10-18T00:17:10.220Z,4.53
2018-10-18T00:19:38.703Z,2.93
2018-10-18T00:22:07.208Z,6.43
2018-10-18T00:24:48.552Z,5.67
2018-10-18T00:27:30.338Z,3.50
2018-10-18T00:30:11.556Z,3.60
2018-10-18T00:32:40.403Z,3.27
2018-10-18T00:35:09.035Z,3.80
2018-10-18T00:37:38.136Z,3.33
2018-10-18T00:40:07.273Z,4.43
2018-10-18T00:42:35.795Z,3.47
2018-10-18T00:45:04.743Z,2.90
2018-10-18T00:47:33.245Z,3.13
2018-10-18T00:50:01.829Z,3.13
2018-10-18T00:52:31.099Z,2.90
2018-10-18T00:54:59.744Z,4.50
2018-10-18T00:57:28.258Z,2.60
2018-10-18T00:59:56.800Z,3.43
2018-10-18T01:02:38.740Z,3.33
2018-10-18T01:05:07.260Z,3.10
2018-10-18T01:07:35.820Z,3.30
2018-10-18T01:10:04.527Z,3.03
2018-10-18T01:12:33.149Z,3.00
2018-10-18T01:15:03.964Z,2.93
2018-10-18T01:17:32.487Z,2.87
2018-10-18T01:20:01.082Z,3.30
2018-10-18T01:22:29.513Z,3.57
2018-10-18T01:25:11.162Z,3.10
2018-10-18T01:27:53.056Z,3.17
2018-10-18T01:30:21.582Z,3.10
2018-10-18T01:32:50.080Z,3.67
2018-10-18T01:35:18.593Z,4.40
2018-10-18T01:37:47.121Z,2.47
2018-10-18T01:40:28.233Z,3.30
2018-10-18T01:43:05.599Z,3.30
2018-10-18T01:45:34.084Z,3.73
2018-10-18T01:48:02.597Z,3.70
2018-10-18T01:50:31.059Z,2.80
2018-10-18T01:52:59.551Z,3.10
2018-10-18T01:55:29.532Z,2.80
2018-10-18T01:57:58.046Z,3.70
2018-10-18T02:00:26.610Z,3.87
2018-10-18T02:02:55.179Z,3.67
2018-10-18T02:05:23.667Z,3.07
2018-10-18T02:07:52.236Z,4.37
2018-10-18T02:10:20.698Z,3.10
2018-10-18T02:12:49.195Z,2.97
2018-10-18T02:15:18.310Z,2.80
2018-10-18T02:17:46.808Z,3.03
2018-10-18T02:20:15.287Z,3.37
2018-10-18T02:22:43.839Z,3.10
2018-10-18T02:25:12.452Z,3.10
2018-10-18T02:27:40.874Z,3.03
2018-10-18T02:30:09.518Z,2.90
2018-10-18T02:32:37.880Z,4.53
2018-10-18T02:35:15.289Z,2.90
2018-10-18T02:37:43.819Z,4.83
2018-10-18T02:40:12.335Z,5.07
2018-10-18T02:42:40.824Z,3.03
2018-10-18T02:45:09.341Z,4.57
2018-10-18T02:47:39.117Z,3.53
2018-10-18T02:50:07.683Z,3.83
2018-10-18T02:52:36.212Z,3.40
2018-10-18T02:55:04.748Z,3.40
2018-10-18T02:57:33.266Z,3.37
2018-10-18T03:00:01.816Z,3.97
2018-10-18T03:02:30.257Z,3.37
2018-10-18T03:04:58.743Z,6.30
2018-10-18T03:07:27.208Z,4.10
2018-10-18T03:09:55.727Z,4.83
2018-10-18T03:12:24.212Z,4.43
2018-10-18T03:14:52.703Z,5.53
2018-10-18T03:17:29.404Z,5.00
2018-10-18T03:19:57.939Z,4.47
2018-10-18T03:22:26.425Z,3.33
2018-10-18T03:24:55.047Z,3.27
2018-10-18T03:27:37.025Z,3.40
2018-10-18T03:30:05.977Z,3.97
2018-10-18T03:32:34.449Z,4.23
2018-10-18T03:35:03.808Z,5.47
2018-10-18T03:37:32.292Z,4.47
2018-10-18T03:40:02.676Z,3.60
2018-10-18T03:42:31.154Z,3.40
2018-10-18T03:44:59.665Z,5.37
2018-10-18T03:47:28.173Z,3.57
2018-10-18T03:49:56.687Z,3.93
2018-10-18T03:52:25.193Z,5.13
2018-10-18T03:54:53.751Z,11.57
2018-10-18T03:57:22.296Z,4.33
2018-10-18T03:59:50.785Z,5.87
2018-10-18T04:02:19.296Z,5.27
2018-10-18T04:04:47.815Z,3.77
2018-10-18T04:07:16.942Z,5.07
2018-10-18T04:09:58.444Z,3.70
2018-10-18T04:12:27.022Z,3.73
2018-10-18T04:14:55.461Z,4.40
2018-10-18T04:17:23.946Z,5.50
2018-10-18T04:19:52.615Z,7.30
2018-10-18T04:22:33.804Z,3.83
2018-10-18T04:25:02.300Z,4.50
2018-10-18T04:27:30.796Z,4.13
2018-10-18T04:29:59.499Z,6.53
2018-10-18T04:32:28.032Z,6.53
2018-10-18T04:34:56.547Z,4.77
2018-10-18T04:37:25.136Z,12.60
2018-10-18T04:39:53.564Z,5.03
2018-10-18T04:42:22.061Z,5.55
2018-10-18T04:44:50.559Z,4.20
2018-10-18T04:47:19.107Z,5.53
2018-10-18T04:49:47.690Z,7.17
2018-10-18T04:52:16.180Z,5.07
2018-10-18T04:54:44.691Z,8.43
2018-10-18T04:57:13.180Z,12.03
2018-10-18T04:59:41.694Z,4.87
2018-10-18T05:02:10.228Z,5.90
2018-10-18T05:04:57.815Z,3.80
2018-10-18T05:07:27.445Z,4.47
2018-10-18T05:09:56.107Z,4.63
2018-10-18T05:12:24.666Z,4.30
2018-10-18T05:14:53.160Z,5.40
2018-10-18T05:17:21.708Z,5.47
2018-10-18T05:19:50.253Z,7.03
2018-10-18T05:22:18.902Z,5.27
2018-10-18T05:24:47.409Z,5.63
2018-10-18T05:27:16.013Z,7.72
2018-10-18T05:29:44.511Z,5.83
2018-10-18T05:32:14.129Z,5.87
2018-10-18T05:34:42.842Z,9.05
2018-10-18T05:37:11.571Z,9.80
2018-10-18T05:39:40.147Z,5.07
2018-10-18T05:42:08.651Z,6.07
2018-10-18T05:44:38.025Z,6.60
2018-10-18T05:47:06.693Z,10.00
2018-10-18T05:49:36.048Z,9.43
2018-10-18T05:52:04.872Z,8.23
2018-10-18T05:54:33.488Z,5.70
2018-10-18T05:57:05.577Z,6.03
2018-10-18T05:59:35.251Z,7.50
2018-10-18T06:02:04.344Z,11.60
2018-10-18T06:04:33.275Z,9.20
2018-10-18T06:07:04.652Z,7.67
2018-10-18T06:09:34.660Z,10.77
2018-10-18T06:12:04.153Z,11.87
2018-10-18T06:14:32.653Z,7.70
2018-10-18T06:17:01.432Z,4.57
2018-10-18T06:19:29.957Z,8.90
2018-10-18T06:22:00.113Z,5.23
2018-10-18T06:24:28.617Z,9.30
2018-10-18T06:26:57.568Z,7.77
2018-10-18T06:29:26.123Z,11.37
2018-10-18T06:31:54.640Z,7.13
2018-10-18T06:34:23.155Z,8.17
2018-10-18T06:36:54.814Z,7.97
2018-10-18T06:39:23.383Z,9.77
2018-10-18T06:41:51.827Z,8.67
2018-10-18T06:44:20.359Z,7.93
2018-10-18T06:46:48.894Z,8.23
2018-10-18T06:49:17.464Z,13.47
2018-10-18T06:51:45.849Z,14.53
2018-10-18T06:54:14.478Z,11.40
2018-10-18T06:56:56.381Z,7.37
2018-10-18T06:59:32.389Z,8.40
2018-10-18T07:02:00.993Z,10.80
2018-10-18T07:04:29.459Z,7.27
2018-10-18T07:06:58.021Z,8.17
2018-10-18T07:09:26.656Z,6.43
2018-10-18T07:11:55.350Z,5.47
2018-10-18T07:14:23.945Z,12.80
2018-10-18T07:16:52.439Z,10.20
2018-10-18T07:19:34.048Z,9.03
2018-10-18T07:22:02.563Z,8.53
2018-10-18T07:24:31.091Z,11.20
2018-10-18T07:26:59.879Z,7.60
2018-10-18T07:29:28.577Z,12.53
2018-10-18T07:31:57.147Z,6.73
2018-10-18T07:34:25.761Z,10.60
2018-10-18T07:36:54.269Z,8.07
2018-10-18T07:39:22.752Z,12.45
2018-10-18T07:42:04.861Z,14.33
2018-10-18T07:44:33.268Z,9.17
2018-10-18T07:47:01.891Z,16.13
2018-10-18T07:49:30.272Z,12.43
2018-10-18T07:51:58.771Z,10.13
2018-10-18T07:54:27.291Z,8.67
2018-10-18T07:56:55.825Z,9.03
2018-10-18T07:59:24.388Z,10.63
2018-10-18T08:01:52.900Z,7.87
2018-10-18T08:04:21.398Z,11.53
2018-10-18T08:06:49.946Z,8.83
2018-10-18T08:09:18.469Z,9.00
2018-10-18T08:11:46.996Z,6.73
2018-10-18T08:14:15.525Z,10.07
2018-10-18T08:16:44.099Z,10.57
2018-10-18T08:19:12.586Z,9.45
2018-10-18T08:21:41.055Z,12.93
2018-10-18T08:24:09.581Z,12.37
2018-10-18T08:26:38.069Z,10.23
2018-10-18T08:29:06.573Z,10.23
2018-10-18T08:31:35.093Z,8.97
2018-10-18T08:34:04.201Z,9.05
2018-10-18T08:36:32.703Z,9.13
2018-10-18T08:39:01.897Z,8.30
2018-10-18T08:41:30.395Z,9.60
2018-10-18T08:43:58.969Z,14.80
2018-10-18T08:46:27.437Z,11.97
2018-10-18T08:48:56.178Z,11.03
2018-10-18T08:51:24.614Z,9.53
2018-10-18T08:53:53.129Z,9.10
2018-10-18T08:56:21.621Z,9.00
2018-10-18T08:58:50.168Z,8.30
2018-10-18T09:01:18.691Z,9.47
2018-10-18T09:03:47.212Z,9.47
2018-10-18T09:06:15.687Z,8.70
2018-10-18T09:08:44.215Z,8.97
2018-10-18T09:11:12.713Z,10.37
2018-10-18T09:13:41.242Z,10.00
2018-10-18T09:16:09.857Z,5.63
2018-10-18T09:18:51.516Z,7.03
2018-10-18T09:21:19.971Z,13.17
2018-10-18T09:23:48.538Z,8.33
2018-10-18T09:26:17.017Z,12.50
2018-10-18T09:28:45.631Z,9.83
2018-10-18T09:31:14.566Z,11.60
2018-10-18T09:33:42.952Z,7.03
2018-10-18T09:36:11.451Z,9.17
2018-10-18T09:38:39.949Z,9.30
2018-10-18T09:41:08.557Z,8.00
2018-10-18T09:43:37.143Z,11.50
2018-10-18T09:46:05.828Z,13.07
2018-10-18T09:48:34.572Z,6.00
2018-10-18T09:51:03.819Z,7.03
2018-10-18T09:53:32.319Z,8.17
2018-10-18T09:56:00.917Z,9.77
2018-10-18T09:58:29.470Z,8.47
2018-10-18T10:01:03.545Z,4.47
2018-10-18T10:03:32.007Z,9.73
2018-10-18T10:06:00.533Z,7.83
2018-10-18T10:08:29.029Z,5.23
2018-10-18T10:10:57.998Z,4.87
2018-10-18T10:13:26.571Z,9.77
2018-10-18T10:15:55.019Z,10.20
2018-10-18T10:18:23.551Z,7.77
2018-10-18T10:20:52.060Z,6.13
2018-10-18T10:23:20.574Z,12.37
2018-10-18T10:25:49.067Z,8.07
2018-10-18T10:28:17.668Z,6.43
2018-10-18T10:30:46.197Z,7.33
2018-10-18T10:33:14.939Z,4.70
2018-10-18T10:35:43.499Z,6.57
2018-10-18T10:38:12.013Z,7.83
2018-10-18T10:40:40.528Z,8.27
2018-10-18T10:43:09.049Z,11.80
2018-10-18T10:45:37.559Z,4.97
2018-10-18T10:48:06.100Z,7.33
2018-10-18T10:50:34.534Z,9.60
2018-10-18T10:53:03.760Z,6.87
2018-10-18T10:55:32.264Z,6.30
2018-10-18T10:58:00.786Z,11.50
2018-10-18T11:00:33.988Z,8.37
2018-10-18T11:03:02.547Z,8.53
2018-10-18T11:05:30.963Z,11.03
2018-10-18T11:07:59.456Z,8.13
2018-10-18T11:10:27.945Z,9.70
2018-10-18T11:12:56.418Z,5.07
2018-10-18T11:15:24.924Z,7.57
2018-10-18T11:17:53.776Z,4.30
2018-10-18T11:20:23.251Z,8.63
2018-10-18T11:22:51.783Z,6.47
2018-10-18T11:25:20.280Z,5.47
2018-10-18T11:27:48.828Z,10.50
2018-10-18T11:30:17.662Z,5.80
2018-10-18T11:32:46.091Z,7.90
2018-10-18T11:35:14.631Z,6.37
2018-10-18T11:37:43.147Z,5.43
2018-10-18T11:40:13.151Z,6.57
2018-10-18T11:42:41.709Z,4.83
2018-10-18T11:45:10.212Z,4.50
2018-10-18T11:47:38.760Z,4.83
2018-10-18T11:50:07.240Z,7.07
2018-10-18T11:52:35.728Z,4.13
2018-10-18T11:55:05.160Z,2.87
2018-10-18T11:57:33.674Z,4.00
2018-10-18T12:00:03.062Z,6.80
2018-10-18T12:02:31.651Z,4.80
2018-10-18T12:05:00.148Z,3.17
2018-10-18T12:07:28.644Z,2.83
2018-10-18T12:09:57.131Z,5.27
2018-10-18T12:12:25.658Z,6.37
2018-10-18T12:14:54.177Z,5.07
2018-10-18T12:17:22.718Z,5.20
2018-10-18T12:19:51.272Z,2.43
2018-10-18T12:22:19.764Z,6.33
2018-10-18T12:24:48.281Z,5.37
2018-10-18T12:27:16.812Z,4.57
2018-10-18T12:29:49.149Z,3.57
2018-10-18T12:32:17.765Z,5.43
2018-10-18T12:34:46.310Z,4.77
2018-10-18T12:37:14.834Z,3.30
2018-10-18T12:39:43.512Z,4.30
2018-10-18T12:42:11.898Z,4.47
2018-10-18T12:44:40.896Z,5.17
2018-10-18T12:47:10.903Z,3.53
2018-10-18T12:49:40.729Z,2.70
2018-10-18T12:52:10.940Z,3.80
2018-10-18T12:54:39.564Z,2.33
2018-10-18T12:57:09.625Z,4.30
2018-10-18T12:59:38.155Z,4.10
2018-10-18T13:02:06.770Z,5.17
2018-10-18T13:04:35.519Z,3.37
2018-10-18T13:07:04.487Z,3.57
2018-10-18T13:09:33.234Z,3.77
2018-10-18T13:12:01.770Z,3.03
2018-10-18T13:14:30.714Z,5.23
2018-10-18T13:16:59.303Z,2.73
2018-10-18T13:19:28.735Z,3.23
2018-10-18T13:21:57.257Z,6.33
2018-10-18T13:24:25.761Z,4.57
2018-10-18T13:26:54.361Z,3.10
2018-10-18T13:29:22.841Z,4.53
2018-10-18T13:31:51.377Z,4.23
2018-10-18T13:34:19.925Z,2.10
2018-10-18T13:36:48.440Z,6.57
2018-10-18T13:39:17.147Z,3.30
2018-10-18T13:41:45.551Z,3.00
2018-10-18T13:44:14.222Z,2.10
2018-10-18T13:46:42.667Z,3.20
2018-10-18T13:49:11.298Z,6.87
2018-10-18T13:51:39.792Z,3.97
2018-10-18T13:54:08.329Z,2.20
2018-10-18T13:56:36.852Z,4.67
2018-10-18T13:59:09.876Z,6.40
2018-10-18T14:01:39.286Z,3.40
2018-10-18T14:04:07.842Z,6.93
2018-10-18T14:06:36.413Z,6.27
2018-10-18T14:09:05.302Z,4.07
2018-10-18T14:11:33.823Z,4.00
2018-10-18T14:14:02.754Z,2.77
2018-10-18T14:16:31.291Z,2.03
2018-10-18T14:18:59.808Z,2.87
2018-10-18T14:21:28.336Z,3.03
2018-10-18T14:23:56.861Z,1.70
2018-10-18T14:26:25.490Z,3.93
2018-10-18T14:28:54.066Z,3.03
2018-10-18T14:31:23.229Z,3.57
2018-10-18T14:33:52.302Z,2.57
2018-10-18T14:36:20.846Z,3.17
2018-10-18T14:38:49.405Z,2.30
2018-10-18T14:41:17.943Z,2.37
2018-10-18T14:43:46.400Z,2.70
2018-10-18T14:46:15.024Z,2.27
2018-10-18T14:48:43.630Z,1.80
2018-10-18T14:51:12.240Z,6.00
2018-10-18T14:53:40.820Z,2.20
2018-10-18T14:56:09.440Z,2.40
2018-10-18T14:58:37.923Z,3.80
2018-10-18T15:01:06.476Z,2.53
2018-10-18T15:03:35.064Z,3.35
2018-10-18T15:06:04.684Z,4.33
2018-10-18T15:08:33.207Z,3.53
2018-10-18T15:11:01.936Z,3.22
2018-10-18T15:13:30.441Z,5.50
2018-10-18T15:15:58.981Z,3.43
2018-10-18T15:18:27.555Z,3.63
2018-10-18T15:20:56.036Z,3.33
2018-10-18T15:23:24.584Z,2.13
2018-10-18T15:25:53.220Z,3.70
2018-10-18T15:28:22.333Z,5.40
2018-10-18T15:30:50.925Z,3.73
2018-10-18T15:33:19.463Z,5.33
2018-10-18T15:35:48.003Z,4.37
2018-10-18T15:38:16.775Z,3.20
2018-10-18T15:40:45.259Z,4.67
2018-10-18T15:43:13.814Z,5.00
2018-10-18T15:45:42.365Z,4.33
2018-10-18T15:48:10.928Z,4.10
2018-10-18T15:50:39.428Z,5.87
2018-10-18T15:53:07.959Z,3.10
2018-10-18T15:55:36.434Z,4.70
2018-10-18T15:58:05.072Z,3.57
2018-10-18T16:00:33.599Z,3.83
2018-10-18T16:03:02.246Z,2.47
2018-10-18T16:05:30.699Z,2.63
2018-10-18T16:07:59.221Z,4.03
2018-10-18T16:10:27.743Z,2.47
2018-10-18T16:12:56.223Z,1.87
2018-10-18T16:15:24.743Z,2.80
2018-10-18T16:17:53.399Z,3.60
2018-10-18T16:20:21.798Z,3.53
2018-10-18T16:22:50.789Z,2.97
2018-10-18T16:25:19.315Z,3.57
2018-10-18T16:27:48.239Z,2.43
2018-10-18T16:30:16.707Z,1.70
2018-10-18T16:32:45.212Z,3.37
2018-10-18T16:35:13.826Z,3.57
2018-10-18T16:37:42.247Z,2.70
2018-10-18T16:40:10.736Z,5.03
2018-10-18T16:42:39.249Z,2.33
2018-10-18T16:45:08.609Z,3.23
2018-10-18T16:47:37.212Z,1.73
2018-10-18T16:50:05.721Z,2.67
2018-10-18T16:52:34.217Z,2.90
2018-10-18T16:55:03.493Z,1.53
2018-10-18T16:57:32.001Z,2.07
2018-10-18T17:00:00.509Z,1.67
2018-10-18T17:02:29.265Z,2.70
2018-10-18T17:04:58.075Z,1.80
2018-10-18T17:07:26.595Z,2.17
2018-10-18T17:09:55.158Z,3.87
2018-10-18T17:12:23.656Z,3.63
2018-10-18T17:14:52.204Z,3.33
2018-10-18T17:17:20.720Z,3.47
2018-10-18T17:19:49.211Z,2.17
2018-10-18T17:22:17.706Z,2.87
2018-10-18T17:24:46.210Z,2.47
2018-10-18T17:27:15.020Z,2.87
2018-10-18T17:29:43.415Z,1.10
2018-10-18T17:32:12.235Z,1.53
2018-10-18T17:34:40.684Z,2.47
2018-10-18T17:37:09.208Z,1.67
2018-10-18T17:39:37.744Z,1.90
2018-10-18T17:42:06.359Z,3.07
2018-10-18T17:44:34.840Z,1.80
2018-10-18T17:47:04.118Z,3.60
2018-10-18T17:49:32.613Z,3.40
2018-10-18T17:52:01.132Z,3.17
2018-10-18T17:54:29.621Z,3.23
2018-10-18T17:56:59.053Z,1.33
2018-10-18T17:59:27.646Z,4.67
2018-10-18T18:01:56.172Z,3.63
2018-10-18T18:04:24.666Z,4.47
2018-10-18T18:06:53.232Z,2.77
2018-10-18T18:09:21.674Z,1.70
2018-10-18T18:11:50.227Z,3.73
2018-10-18T18:14:18.728Z,2.03
2018-10-18T18:16:47.270Z,2.40
2018-10-18T18:19:15.813Z,2.07
2018-10-18T18:21:44.404Z,1.63
2018-10-18T18:24:12.925Z,6.93
2018-10-18T18:26:45.347Z,4.90
2018-10-18T18:29:09.933Z,5.00
2018-10-18T18:31:38.509Z,2.70
2018-10-18T18:34:07.020Z,7.63
2018-10-18T18:36:35.534Z,1.73
2018-10-18T18:39:05.760Z,5.73
2018-10-18T18:41:34.259Z,2.87
2018-10-18T18:44:02.850Z,2.40
2018-10-18T18:46:31.368Z,2.70
2018-10-18T18:48:59.915Z,2.50
2018-10-18T18:51:28.571Z,1.97
2018-10-18T18:53:57.093Z,1.93
2018-10-18T18:56:25.788Z,4.90
2018-10-18T18:58:54.307Z,4.40
2018-10-18T19:01:22.824Z,6.27
2018-10-18T19:03:51.329Z,4.50
2018-10-18T19:06:19.828Z,5.17
2018-10-18T19:08:48.357Z,2.53
2018-10-18T19:11:16.871Z,6.17
2018-10-18T19:13:45.404Z,1.40
2018-10-18T19:16:13.952Z,2.97
2018-10-18T19:18:42.465Z,3.10
2018-10-18T19:21:11.101Z,3.63
2018-10-18T19:23:39.632Z,5.30
2018-10-18T19:26:08.194Z,4.93
2018-10-18T19:28:36.786Z,4.43
2018-10-18T19:31:05.278Z,2.43
2018-10-18T19:33:33.859Z,4.13
2018-10-18T19:36:02.384Z,3.90
2018-10-18T19:38:30.901Z,1.63
2018-10-18T19:40:59.497Z,8.03
2018-10-18T19:43:28.045Z,1.97
2018-10-18T19:45:56.600Z,4.97
2018-10-18T19:48:25.076Z,1.47
2018-10-18T19:50:53.607Z,6.43
2018-10-18T19:53:22.092Z,4.23
2018-10-18T19:55:50.730Z,3.27
2018-10-18T19:58:19.232Z,3.43
2018-10-18T20:00:47.723Z,2.80
2018-10-18T20:03:16.340Z,4.80
2018-10-18T20:05:44.805Z,1.97
2018-10-18T20:08:13.404Z,1.90
2018-10-18T20:10:41.917Z,4.53
2018-10-18T20:13:10.414Z,6.53
2018-10-18T20:15:38.928Z,2.23
2018-10-18T20:18:07.506Z,6.00
2018-10-18T20:20:35.952Z,3.10
2018-10-18T20:23:04.445Z,3.30
2018-10-18T20:25:33.004Z,3.03
2018-10-18T20:28:01.465Z,4.90
2018-10-18T20:30:29.997Z,3.60
2018-10-18T20:32:58.540Z,5.77
2018-10-18T20:35:27.062Z,1.90
2018-10-18T20:37:55.541Z,3.00
2018-10-18T20:40:24.050Z,4.57
2018-10-18T20:42:52.575Z,4.87
2018-10-18T20:45:29.292Z,3.63
2018-10-18T20:47:57.914Z,5.70
2018-10-18T20:50:26.349Z,3.03
2018-10-18T20:52:54.897Z,3.00
2018-10-18T20:55:23.393Z,4.40
2018-10-18T20:57:51.905Z,5.73
2018-10-18T21:00:20.415Z,2.60
2018-10-18T21:02:48.967Z,5.27
2018-10-18T21:05:17.487Z,2.60
2018-10-18T21:07:45.981Z,3.70
2018-10-18T21:10:14.551Z,2.40
2018-10-18T21:12:43.044Z,3.20
2018-10-18T21:15:11.601Z,6.10
2018-10-18T21:17:40.050Z,7.03
2018-10-18T21:20:08.674Z,1.53
2018-10-18T21:22:37.212Z,3.90
2018-10-18T21:25:05.745Z,2.60
2018-10-18T21:27:34.640Z,2.43
2018-10-18T21:30:03.080Z,1.63
2018-10-18T21:32:31.589Z,3.00
2018-10-18T21:35:00.107Z,2.63
2018-10-18T21:37:28.587Z,4.63
2018-10-18T21:39:58.218Z,4.23
2018-10-18T21:42:26.734Z,4.60
2018-10-18T21:44:55.406Z,3.07
2018-10-18T21:47:23.939Z,3.57
2018-10-18T21:49:52.457Z,6.63
2018-10-18T21:52:20.959Z,2.77
2018-10-18T21:54:49.488Z,3.10
2018-10-18T21:57:17.989Z,1.80
2018-10-18T21:59:46.491Z,2.63
2018-10-18T22:02:14.995Z,2.30
2018-10-18T22:04:43.481Z,3.67
2018-10-18T22:07:12.002Z,5.13
2018-10-18T22:09:40.493Z,2.43
2018-10-18T22:12:09.028Z,1.17
2018-10-18T22:14:37.548Z,5.20
2018-10-18T22:17:06.072Z,2.70
2018-10-18T22:19:34.582Z,5.10
2018-10-18T22:22:03.811Z,3.00
2018-10-18T22:24:32.299Z,1.80
2018-10-18T22:27:00.862Z,2.43
2018-10-18T22:29:29.320Z,2.47
2018-10-18T22:31:57.844Z,2.07
2018-10-18T22:34:26.341Z,1.97
2018-10-18T22:36:54.860Z,1.93
2018-10-18T22:39:23.340Z,3.73
2018-10-18T22:41:51.848Z,2.90
2018-10-18T22:44:20.348Z,2.20
2018-10-18T22:46:48.857Z,3.43
2018-10-18T22:49:17.373Z,2.40
2018-10-18T22:51:45.914Z,2.20
2018-10-18T22:54:14.440Z,1.67
2018-10-18T22:56:42.969Z,2.97
2018-10-18T22:59:11.654Z,5.23
2018-10-18T23:01:39.971Z,3.70
2018-10-18T23:04:08.467Z,4.07
2018-10-18T23:06:37.021Z,1.47
2018-10-18T23:09:07.244Z,4.80
2018-10-18T23:11:35.781Z,2.83
2018-10-18T23:14:04.676Z,3.02
2018-10-18T23:16:33.224Z,6.33
2018-10-18T23:19:01.767Z,2.23
2018-10-18T23:21:30.268Z,2.20
2018-10-18T23:23:58.787Z,2.70
2018-10-18T23:26:27.277Z,5.00
2018-10-18T23:28:55.819Z,3.07
2018-10-18T23:31:24.312Z,3.47
2018-10-18T23:33:53.069Z,2.53
2018-10-18T23:36:21.576Z,3.30
2018-10-18T23:38:50.112Z,6.33
2018-10-18T23:41:18.591Z,1.27
2018-10-18T23:43:47.097Z,3.80
2018-10-18T23:46:15.590Z,2.27
2018-10-18T23:48:44.125Z,2.97
2018-10-18T23:51:12.686Z,5.07
2018-10-18T23:53:41.162Z,11.07
2018-10-18T23:56:09.678Z,1.67
2018-10-18T23:58:38.270Z,1.33
